createdAt,value
2022-12-19T00:00:25.111Z,13.25
2022-12-19T00:02:56.508Z,13.98
2022-12-19T00:05:23.592Z,15.15
2022-12-19T00:07:59.687Z,15.52
2022-12-19T00:10:32.190Z,14.52
2022-12-19T00:12:59.362Z,14.55
2022-12-19T00:15:31.030Z,11.40
2022-12-19T00:18:02.286Z,13.13
2022-12-19T00:20:29.157Z,12.77
2022-12-19T00:22:56.191Z,14.07
2022-12-19T00:25:22.855Z,11.75
2022-12-19T00:27:52.514Z,10.85
2022-12-19T00:30:19.374Z,9.85
2022-12-19T00:35:17.416Z,9.50
2022-12-19T00:37:49.584Z,9.90
2022-12-19T00:40:31.308Z,13.00
2022-12-19T00:42:59.826Z,11.63
2022-12-19T00:45:28.092Z,12.15
2022-12-19T00:47:57.067Z,12.80
2022-12-19T00:50:25.821Z,11.73
2022-12-19T00:52:53.151Z,12.98
2022-12-19T00:55:20.218Z,12.88
2022-12-19T01:00:25.602Z,11.32
2022-12-19T01:02:59.830Z,10.90
2022-12-19T01:05:34.152Z,12.85
2022-12-19T01:08:05.477Z,13.10
2022-12-19T01:10:52.099Z,11.02
2022-12-19T01:13:23.776Z,13.90
2022-12-19T01:15:52.626Z,12.55
2022-12-19T01:18:19.297Z,12.50
2022-12-19T01:20:48.327Z,12.55
2022-12-19T01:23:17.931Z,11.23
2022-12-19T01:25:54.439Z,12.25
2022-12-19T01:28:23.149Z,11.45
2022-12-19T01:30:50.433Z,11.40
2022-12-19T01:33:18.878Z,13.40
2022-12-19T01:35:49.083Z,13.35
2022-12-19T01:38:19.553Z,13.18
2022-12-19T01:40:51.803Z,11.93
2022-12-19T01:43:58.382Z,12.20
2022-12-19T01:46:46.638Z,11.30
2022-12-19T01:49:36.343Z,12.88
2022-12-19T01:52:20.761Z,12.75
2022-12-19T01:54:51.106Z,12.38
2022-12-19T01:57:20.349Z,12.98
2022-12-19T01:59:54.555Z,15.05
2022-12-19T02:02:39.953Z,12.70
2022-12-19T02:05:19.399Z,11.55
2022-12-19T02:07:53.185Z,12.40
2022-12-19T02:10:22.097Z,12.90
2022-12-19T02:12:50.010Z,14.32
2022-12-19T02:15:18.231Z,10.80
2022-12-19T02:18:00.227Z,12.95
2022-12-19T02:20:37.922Z,10.05
2022-12-19T02:23:26.588Z,13.38
2022-12-19T02:26:24.612Z,13.07
2022-12-19T02:29:21.212Z,13.02
2022-12-19T02:32:32.239Z,15.75
2022-12-19T02:35:25.313Z,12.45
2022-12-19T02:38:19.791Z,12.48
2022-12-19T02:41:09.927Z,14.85
2022-12-19T02:43:49.096Z,14.02
2022-12-19T02:46:28.801Z,12.57
2022-12-19T02:49:01.558Z,12.63
2022-12-19T02:52:01.905Z,12.70
2022-12-19T02:54:29.231Z,15.55
2022-12-19T02:57:13.822Z,12.70
2022-12-19T02:59:54.136Z,13.20
2022-12-19T03:03:00.658Z,16.10
2022-12-19T03:06:23.209Z,14.45
2022-12-19T03:09:14.000Z,12.48
2022-12-19T03:11:45.520Z,14.60
2022-12-19T03:14:21.320Z,14.82
2022-12-19T03:16:49.766Z,15.18
2022-12-19T03:19:19.723Z,14.63
2022-12-19T03:21:49.156Z,14.77
2022-12-19T03:24:19.873Z,11.77
2022-12-19T03:26:57.089Z,15.27
2022-12-19T03:29:32.728Z,13.73
2022-12-19T03:32:09.642Z,14.45
2022-12-19T03:34:49.045Z,16.30
2022-12-19T03:37:22.492Z,14.80
2022-12-19T03:44:23.904Z,15.57
2022-12-19T03:47:33.806Z,13.02
2022-12-19T03:50:03.831Z,14.73
2022-12-19T03:52:59.895Z,14.55
2022-12-19T03:55:51.775Z,15.82
2022-12-19T03:58:42.179Z,13.63
2022-12-19T04:01:13.085Z,15.15
2022-12-19T04:03:43.141Z,14.25
2022-12-19T04:06:36.811Z,15.13
2022-12-19T04:09:06.676Z,15.90
2022-12-19T04:11:49.190Z,13.57
2022-12-19T04:14:32.222Z,14.40
2022-12-19T04:17:23.644Z,16.98
2022-12-19T04:22:42.015Z,12.77
2022-12-19T04:25:19.094Z,15.75
2022-12-19T04:27:52.198Z,15.93
2022-12-19T04:30:29.970Z,16.50
2022-12-19T04:33:09.502Z,15.52
2022-12-19T04:35:40.979Z,17.10
2022-12-19T04:38:08.538Z,17.00
2022-12-19T04:40:42.342Z,17.13
2022-12-19T04:43:09.807Z,16.10
2022-12-19T04:45:42.034Z,15.57
2022-12-19T04:48:31.713Z,16.23
2022-12-19T04:50:58.797Z,17.20
2022-12-19T04:56:02.362Z,15.50
2022-12-19T04:58:32.581Z,16.20
2022-12-19T05:01:07.200Z,13.98
2022-12-19T05:03:35.717Z,16.35
2022-12-19T05:06:39.825Z,16.70
2022-12-19T05:09:10.583Z,17.70
2022-12-19T05:11:41.109Z,16.13
2022-12-19T05:14:21.919Z,17.95
2022-12-19T05:16:49.118Z,15.77
2022-12-19T05:21:49.107Z,16.20
2022-12-19T05:24:17.860Z,13.95
2022-12-19T05:26:49.338Z,17.88
2022-12-19T05:29:20.180Z,18.85
2022-12-19T05:31:52.322Z,16.85
2022-12-19T05:34:36.845Z,15.68
2022-12-19T05:37:29.794Z,15.60
2022-12-19T05:40:01.367Z,16.75
2022-12-19T05:42:43.033Z,18.05
2022-12-19T05:47:59.961Z,15.93
2022-12-19T05:59:15.204Z,15.30
2022-12-19T06:01:57.160Z,16.85
2022-12-19T06:04:46.506Z,18.10
2022-12-19T06:09:54.751Z,16.15
2022-12-19T06:12:39.444Z,16.17
2022-12-19T06:23:02.211Z,16.73
2022-12-19T06:25:56.516Z,19.00
2022-12-19T06:28:30.565Z,17.92
2022-12-19T06:31:46.852Z,16.45
2022-12-19T06:34:55.143Z,17.50
2022-12-19T06:37:10.941Z,18.20
2022-12-19T06:39:45.432Z,17.27
2022-12-19T06:42:30.969Z,16.63
2022-12-19T06:45:05.032Z,17.08
2022-12-19T06:50:48.695Z,16.05
2022-12-19T06:53:28.199Z,19.35
2022-12-19T06:56:04.696Z,15.93
2022-12-19T06:58:36.504Z,18.75
2022-12-19T07:02:00.196Z,20.60
2022-12-19T07:05:06.533Z,16.98
2022-12-19T07:07:40.338Z,18.13
2022-12-19T07:10:09.115Z,16.83
2022-12-19T07:12:51.499Z,18.15
2022-12-19T07:15:22.391Z,18.45
2022-12-19T07:17:49.335Z,17.20
2022-12-19T07:23:50.574Z,17.67
2022-12-19T07:27:35.824Z,18.48
2022-12-19T07:30:11.083Z,21.80
2022-12-19T07:36:40.931Z,17.08
2022-12-19T07:39:19.639Z,18.38
2022-12-19T07:41:51.984Z,16.98
2022-12-19T07:47:18.989Z,16.77
2022-12-19T07:50:31.370Z,19.75
2022-12-19T07:53:10.925Z,17.83
2022-12-19T07:58:21.236Z,18.35
2022-12-19T08:00:56.689Z,18.58
2022-12-19T08:03:29.807Z,17.55
2022-12-19T08:09:14.327Z,17.77
2022-12-19T08:11:54.934Z,17.02
2022-12-19T08:14:31.127Z,19.30
2022-12-19T08:17:25.785Z,18.00
2022-12-19T08:19:59.869Z,19.92
2022-12-19T08:22:53.161Z,17.92
2022-12-19T08:25:50.404Z,19.08
2022-12-19T08:28:45.373Z,19.17
2022-12-19T08:31:40.367Z,18.52
2022-12-19T08:34:19.035Z,17.55
2022-12-19T08:36:50.379Z,19.10
2022-12-19T08:39:21.226Z,18.95
2022-12-19T08:42:30.011Z,18.08
2022-12-19T08:45:05.076Z,19.20
2022-12-19T08:47:55.337Z,18.83
2022-12-19T08:50:42.769Z,18.48
2022-12-19T08:53:19.000Z,17.92
2022-12-19T08:57:11.514Z,16.25
2022-12-19T09:00:24.283Z,18.48
2022-12-19T09:03:49.028Z,17.40
2022-12-19T09:07:15.731Z,17.45
2022-12-19T09:10:20.475Z,15.30
2022-12-19T09:13:16.037Z,14.98
2022-12-19T09:16:55.651Z,14.27
2022-12-19T09:20:24.202Z,14.40
2022-12-19T09:24:07.495Z,11.52
2022-12-19T09:34:38.419Z,11.90
2022-12-19T09:38:11.380Z,14.98
2022-12-19T09:44:41.267Z,13.88
2022-12-19T09:47:23.511Z,12.73
2022-12-19T09:50:44.308Z,13.52
2022-12-19T09:54:14.869Z,14.40
2022-12-19T09:58:01.119Z,15.00
2022-12-19T10:00:43.732Z,13.82
2022-12-19T10:03:52.256Z,15.13
2022-12-19T10:07:22.356Z,14.02
2022-12-19T10:13:00.109Z,13.55
2022-12-19T10:16:00.262Z,13.13
2022-12-19T10:22:42.785Z,14.63
2022-12-19T10:28:35.335Z,13.23
2022-12-19T10:31:22.193Z,14.95
2022-12-19T10:34:31.890Z,13.65
2022-12-19T10:37:31.447Z,13.65
2022-12-19T10:40:52.745Z,12.48
2022-12-19T10:43:55.196Z,15.27
2022-12-19T10:46:50.220Z,15.23
2022-12-19T10:49:35.963Z,16.95
2022-12-19T10:52:13.302Z,13.98
2022-12-19T10:55:10.522Z,17.10
2022-12-19T10:57:59.375Z,18.48
2022-12-19T11:04:55.610Z,18.13
2022-12-19T11:07:23.160Z,16.75
2022-12-19T11:10:35.723Z,16.33
2022-12-19T11:18:21.322Z,16.27
2022-12-19T11:21:26.892Z,16.75
2022-12-19T11:29:37.054Z,20.73
2022-12-19T11:29:38.938Z,19.95
2022-12-19T11:31:52.841Z,17.40
2022-12-19T11:32:41.045Z,19.85
2022-12-19T11:35:37.577Z,18.05
2022-12-19T11:38:11.120Z,19.15
2022-12-19T11:44:25.315Z,19.23
2022-12-19T11:50:52.165Z,16.85
2022-12-19T11:53:59.599Z,19.45
2022-12-19T11:56:39.672Z,19.08
2022-12-19T11:59:34.481Z,21.13
2022-12-19T12:02:36.597Z,19.02
2022-12-19T12:09:36.083Z,15.00
2022-12-19T12:18:32.470Z,15.93
2022-12-19T12:24:25.031Z,17.90
2022-12-19T12:31:20.323Z,17.40
2022-12-19T12:31:29.754Z,16.52
2022-12-19T12:31:40.920Z,10.27
2022-12-19T12:32:00.573Z,12.30
2022-12-19T12:35:34.974Z,16.35
2022-12-19T12:40:55.431Z,16.45
2022-12-19T12:43:44.669Z,18.55
2022-12-19T12:46:24.906Z,18.48
2022-12-19T12:49:05.737Z,20.33
2022-12-19T12:52:52.282Z,19.95
2022-12-19T12:55:51.533Z,23.55
2022-12-19T12:58:59.517Z,19.15
2022-12-19T13:01:40.095Z,20.00
2022-12-19T13:04:31.974Z,18.10
2022-12-19T13:07:22.005Z,17.45
2022-12-19T13:09:58.869Z,17.63
2022-12-19T13:12:50.757Z,17.08
2022-12-19T13:15:32.687Z,19.05
2022-12-19T13:18:24.688Z,16.90
2022-12-19T13:20:55.786Z,18.15
2022-12-19T13:23:38.033Z,17.15
2022-12-19T13:26:43.578Z,17.23
2022-12-19T13:29:52.104Z,17.92
2022-12-19T13:32:33.102Z,18.95
2022-12-19T13:35:07.005Z,16.92
2022-12-19T13:39:56.901Z,16.73
2022-12-19T13:41:58.385Z,16.95
2022-12-19T13:44:31.095Z,17.17
2022-12-19T13:46:59.760Z,19.75
2022-12-19T13:49:35.386Z,13.95
2022-12-19T13:52:04.192Z,15.70
2022-12-19T13:54:47.326Z,17.38
2022-12-19T13:57:31.866Z,19.17
2022-12-19T14:00:10.057Z,20.20
2022-12-19T14:02:49.986Z,15.48
2022-12-19T14:06:14.929Z,16.92
2022-12-19T14:08:25.673Z,15.90
2022-12-19T14:11:33.693Z,19.55
2022-12-19T14:14:20.569Z,16.42
2022-12-19T14:17:07.095Z,18.45
2022-12-19T14:19:41.456Z,17.17
2022-12-19T14:22:35.548Z,18.23
2022-12-19T14:25:10.160Z,20.40
2022-12-19T14:28:21.196Z,25.55
2022-12-19T14:31:00.474Z,20.30
2022-12-19T14:34:11.647Z,24.25
2022-12-19T14:37:00.335Z,17.23
2022-12-19T14:39:35.852Z,25.27
2022-12-19T14:43:48.076Z,16.98
2022-12-19T14:54:00.204Z,18.83
2022-12-19T14:54:28.662Z,11.10
2022-12-19T14:56:17.806Z,11.05
2022-12-19T14:58:53.971Z,11.25
2022-12-19T15:02:13.248Z,10.30
2022-12-19T15:05:31.684Z,9.20
2022-12-19T15:08:14.189Z,11.80
2022-12-19T15:11:05.455Z,11.45
2022-12-19T15:16:28.877Z,11.32
2022-12-19T15:18:14.053Z,14.27
2022-12-19T15:21:16.096Z,12.45
2022-12-19T15:24:43.381Z,14.48
2022-12-19T15:32:00.390Z,9.90
2022-12-19T15:35:05.939Z,13.52
2022-12-19T15:37:45.870Z,9.32
2022-12-19T15:40:21.467Z,8.43
2022-12-19T15:42:58.796Z,13.18
2022-12-19T15:45:30.882Z,16.70
2022-12-19T15:47:57.883Z,18.35
2022-12-19T15:50:33.099Z,10.23
2022-12-19T15:53:40.200Z,17.10
2022-12-19T15:56:28.914Z,12.88
2022-12-19T15:59:05.288Z,20.30
2022-12-19T16:01:42.833Z,21.55
2022-12-19T16:05:05.142Z,15.95
2022-12-19T16:07:55.296Z,13.40
2022-12-19T16:22:58.343Z,11.60
2022-12-19T16:26:05.038Z,12.30
2022-12-19T16:28:41.530Z,10.27
2022-12-19T16:31:16.622Z,12.30
2022-12-19T16:33:43.356Z,14.73
2022-12-19T16:36:45.780Z,15.70
2022-12-19T16:39:16.940Z,9.00
2022-12-19T16:42:01.368Z,10.50
2022-12-19T16:44:35.927Z,13.38
2022-12-19T16:47:02.845Z,13.63
2022-12-19T16:49:30.766Z,12.15
2022-12-19T16:51:57.560Z,10.05
2022-12-19T16:56:52.939Z,9.63
2022-12-19T16:59:29.053Z,13.10
2022-12-19T17:01:56.599Z,11.88
2022-12-19T17:04:25.656Z,11.02
2022-12-19T17:06:53.791Z,11.27
2022-12-19T17:09:31.505Z,12.23
2022-12-19T17:12:02.108Z,13.57
2022-12-19T17:14:39.113Z,12.73
2022-12-19T17:17:17.174Z,12.95
2022-12-19T17:19:51.054Z,11.52
2022-12-19T17:22:30.954Z,11.20
2022-12-19T17:25:30.719Z,9.38
2022-12-19T17:28:06.817Z,8.43
2022-12-19T17:31:04.959Z,7.97
2022-12-19T17:33:58.627Z,9.15
2022-12-19T17:36:38.815Z,10.77
2022-12-19T17:39:25.054Z,9.40
2022-12-19T17:41:58.372Z,7.85
2022-12-19T17:44:28.814Z,9.30
2022-12-19T17:48:18.438Z,12.13
2022-12-19T17:54:45.468Z,7.90
2022-12-19T17:57:19.713Z,12.65
2022-12-19T17:59:52.586Z,14.18
2022-12-19T18:03:37.264Z,13.15
2022-12-19T18:11:13.976Z,13.75
2022-12-19T18:13:57.474Z,18.23
2022-12-19T18:16:39.949Z,12.18
2022-12-19T18:19:08.635Z,30.15
2022-12-19T18:21:38.340Z,15.93
2022-12-19T18:24:29.444Z,20.70
2022-12-19T18:27:25.899Z,16.55
2022-12-19T18:35:16.461Z,10.60
2022-12-19T18:37:48.931Z,15.13
2022-12-19T18:41:11.279Z,13.73
2022-12-19T18:47:24.082Z,15.88
2022-12-19T18:53:48.142Z,16.67
2022-12-19T18:56:48.176Z,13.05
2022-12-19T18:59:31.423Z,14.18
2022-12-19T19:02:04.104Z,14.30
2022-12-19T19:07:25.418Z,17.33
2022-12-19T19:09:55.237Z,14.55
2022-12-19T19:21:05.523Z,13.07
2022-12-19T19:24:05.071Z,12.40
2022-12-19T19:26:43.892Z,14.30
2022-12-19T19:29:13.599Z,14.32
2022-12-19T19:31:44.712Z,15.05
2022-12-19T19:34:55.705Z,13.77
2022-12-19T19:38:28.167Z,15.02
2022-12-19T19:41:54.923Z,12.82
2022-12-19T19:44:31.085Z,13.38
2022-12-19T19:47:03.462Z,14.20
2022-12-19T19:49:41.971Z,16.77
2022-12-19T19:52:18.468Z,17.75
2022-12-19T19:54:48.130Z,16.52
2022-12-19T19:57:14.859Z,14.93
2022-12-19T19:59:42.764Z,13.55
2022-12-19T20:02:11.435Z,15.35
2022-12-19T20:04:41.311Z,14.77
2022-12-19T20:07:08.471Z,12.07
2022-12-19T20:09:36.557Z,11.43
2022-12-19T20:14:30.769Z,12.68
2022-12-19T20:17:02.719Z,13.65
2022-12-19T20:19:32.744Z,9.05
2022-12-19T20:22:01.267Z,10.73
2022-12-19T20:24:32.220Z,11.52
2022-12-19T20:27:05.619Z,12.13
2022-12-19T20:29:36.678Z,13.63
2022-12-19T20:32:08.084Z,12.07
2022-12-19T20:34:43.184Z,15.05
2022-12-19T20:37:15.291Z,13.95
2022-12-19T20:39:44.834Z,14.95
2022-12-19T20:42:14.370Z,14.48
2022-12-19T20:44:47.770Z,15.45
2022-12-19T20:47:17.134Z,14.75
2022-12-19T20:49:44.662Z,15.40
2022-12-19T20:52:11.996Z,16.67
2022-12-19T20:54:39.477Z,15.90
2022-12-19T20:57:24.054Z,17.05
2022-12-19T20:59:53.206Z,15.77
2022-12-19T21:02:23.278Z,16.67
2022-12-19T21:04:51.263Z,17.25
2022-12-19T21:07:24.394Z,16.15
2022-12-19T21:10:05.076Z,15.90
2022-12-19T21:12:47.199Z,16.70
2022-12-19T21:15:15.544Z,13.40
2022-12-19T21:17:44.914Z,14.63
2022-12-19T21:20:14.876Z,16.38
2022-12-19T21:22:41.781Z,16.55
2022-12-19T21:25:11.444Z,16.10
2022-12-19T21:27:38.374Z,14.15
2022-12-19T21:30:06.528Z,15.20
2022-12-19T21:32:36.467Z,16.05
2022-12-19T21:35:03.576Z,15.27
2022-12-19T21:37:31.049Z,14.32
2022-12-19T21:39:58.570Z,15.75
2022-12-19T21:42:25.820Z,15.75
2022-12-19T21:44:54.911Z,15.98
2022-12-19T21:47:21.578Z,17.90
2022-12-19T21:49:49.511Z,15.95
2022-12-19T21:52:16.164Z,17.58
2022-12-19T21:54:45.846Z,17.58
2022-12-19T21:57:15.006Z,17.33
2022-12-19T21:59:45.755Z,17.48
2022-12-19T22:02:14.455Z,20.83
2022-12-19T22:04:41.350Z,17.65
2022-12-19T22:07:11.303Z,18.92
2022-12-19T22:09:46.144Z,19.45
2022-12-19T22:12:16.640Z,19.73
2022-12-19T22:14:44.797Z,18.48
2022-12-19T22:17:11.585Z,18.48
2022-12-19T22:19:39.810Z,17.20
2022-12-19T22:22:07.019Z,18.33
2022-12-19T22:24:34.135Z,16.83
2022-12-19T22:27:05.040Z,18.75
2022-12-19T22:29:36.447Z,19.10
2022-12-19T22:32:04.594Z,20.83
2022-12-19T22:34:31.727Z,21.17
2022-12-19T22:36:58.604Z,20.65
2022-12-19T22:41:59.797Z,17.35
2022-12-19T22:44:26.565Z,18.08
2022-12-19T22:46:56.415Z,18.33
2022-12-19T22:49:23.175Z,17.52
2022-12-19T22:51:50.260Z,19.77
2022-12-19T22:56:52.575Z,19.13
2022-12-19T22:59:22.518Z,19.25
2022-12-19T23:01:49.973Z,18.85
2022-12-19T23:04:17.736Z,20.85
2022-12-19T23:06:47.520Z,18.98
2022-12-19T23:09:27.839Z,20.65
2022-12-19T23:11:55.100Z,20.55
2022-12-19T23:16:58.063Z,15.57
2022-12-19T23:19:25.114Z,17.75
2022-12-19T23:21:51.711Z,16.27
2022-12-19T23:24:21.117Z,17.10
2022-12-19T23:26:51.499Z,18.67
2022-12-19T23:29:18.480Z,16.98
2022-12-19T23:34:15.768Z,17.02
2022-12-19T23:39:45.939Z,16.10
2022-12-19T23:42:15.243Z,17.58
2022-12-19T23:44:42.203Z,19.95
2022-12-19T23:47:22.980Z,17.70
2022-12-19T23:49:49.825Z,16.08
2022-12-19T23:52:16.596Z,18.70
2022-12-19T23:54:43.596Z,19.42
2022-12-19T23:59:37.220Z,13.82
